createdAt,value
2022-12-01T00:01:23.024Z,23.80
2022-12-01T00:03:50.348Z,23.37
2022-12-01T00:06:20.582Z,24.63
2022-12-01T00:09:09.297Z,21.87
2022-12-01T00:11:38.112Z,22.17
2022-12-01T00:14:05.878Z,24.60
2022-12-01T00:16:33.647Z,22.60
2022-12-01T00:19:01.040Z,22.60
2022-12-01T00:21:28.512Z,21.40
2022-12-01T00:23:57.742Z,25.03
2022-12-01T00:26:27.006Z,23.60
2022-12-01T00:28:56.537Z,22.70
2022-12-01T00:31:24.307Z,26.03
2022-12-01T00:33:51.718Z,23.77
2022-12-01T00:36:18.888Z,22.40
2022-12-01T00:38:46.249Z,24.17
2022-12-01T00:41:13.430Z,22.60
2022-12-01T00:43:41.484Z,22.97
2022-12-01T00:46:09.041Z,23.07
2022-12-01T00:48:36.262Z,22.90
2022-12-01T00:51:03.711Z,24.57
2022-12-01T00:53:31.175Z,23.60
2022-12-01T00:55:58.281Z,25.30
2022-12-01T00:58:25.658Z,24.03
2022-12-01T01:01:00.986Z,25.70
2022-12-01T01:03:29.747Z,22.93
2022-12-01T01:05:56.865Z,22.00
2022-12-01T01:08:24.151Z,24.93
2022-12-01T01:10:51.307Z,27.20
2022-12-01T01:13:18.474Z,26.00
2022-12-01T01:15:45.671Z,26.23
2022-12-01T01:18:12.960Z,26.97
2022-12-01T01:20:40.130Z,23.17
2022-12-01T01:23:07.254Z,23.63
2022-12-01T01:25:34.427Z,23.67
2022-12-01T01:28:01.561Z,23.93
2022-12-01T01:30:28.789Z,23.53
2022-12-01T01:32:55.972Z,24.50
2022-12-01T01:35:23.209Z,24.80
2022-12-01T01:37:51.048Z,28.20
2022-12-01T01:40:18.702Z,26.67
2022-12-01T01:42:45.959Z,26.43
2022-12-01T01:45:22.400Z,26.10
2022-12-01T01:47:52.109Z,28.23
2022-12-01T01:50:22.717Z,25.60
2022-12-01T01:52:56.473Z,27.00
2022-12-01T01:55:23.742Z,28.87
2022-12-01T01:57:51.194Z,26.97
2022-12-01T02:00:20.781Z,27.40
2022-12-01T02:02:50.128Z,27.80
2022-12-01T02:05:24.916Z,28.67
2022-12-01T02:07:55.366Z,28.07
2022-12-01T02:10:31.815Z,30.60
2022-12-01T02:13:10.616Z,29.10
2022-12-01T02:15:37.773Z,30.53
2022-12-01T02:18:14.025Z,29.57
2022-12-01T02:20:59.923Z,27.07
2022-12-01T02:23:51.572Z,29.50
2022-12-01T02:26:49.606Z,29.80
2022-12-01T02:30:03.504Z,29.70
2022-12-01T02:32:39.420Z,29.83
2022-12-01T02:35:27.519Z,31.50
2022-12-01T02:38:28.620Z,33.07
2022-12-01T02:41:00.558Z,28.30
2022-12-01T02:43:49.714Z,31.03
2022-12-01T02:46:28.097Z,30.53
2022-12-01T02:48:59.746Z,30.00
2022-12-01T02:51:32.507Z,29.63
2022-12-01T02:54:02.372Z,29.97
2022-12-01T02:56:29.732Z,31.50
2022-12-01T02:58:57.059Z,31.80
2022-12-01T03:01:59.254Z,33.00
2022-12-01T03:04:42.555Z,32.13
2022-12-01T03:07:33.389Z,33.70
2022-12-01T03:10:12.539Z,33.37
2022-12-01T03:12:51.901Z,29.80
2022-12-01T03:15:25.397Z,31.07
2022-12-01T03:17:58.317Z,31.37
2022-12-01T03:20:35.202Z,30.27
2022-12-01T03:23:12.944Z,34.80
2022-12-01T03:25:43.497Z,34.13
2022-12-01T03:28:22.927Z,34.63
2022-12-01T03:30:54.777Z,31.57
2022-12-01T03:33:29.475Z,34.30
2022-12-01T03:36:03.359Z,32.97
2022-12-01T03:38:32.077Z,33.23
2022-12-01T03:41:04.341Z,33.93
2022-12-01T03:43:35.108Z,33.17
2022-12-01T03:46:23.728Z,32.30
2022-12-01T03:48:53.039Z,33.10
2022-12-01T03:51:28.041Z,34.00
2022-12-01T03:54:32.555Z,31.40
2022-12-01T03:57:05.648Z,30.90
2022-12-01T03:59:35.986Z,32.70
2022-12-01T04:02:03.346Z,32.50
2022-12-01T04:04:30.656Z,31.50
2022-12-01T04:06:57.803Z,33.30
2022-12-01T04:09:25.033Z,32.07
2022-12-01T04:12:10.472Z,27.77
2022-12-01T04:14:37.559Z,30.57
2022-12-01T04:17:04.675Z,29.43
2022-12-01T04:19:32.181Z,29.80
2022-12-01T04:21:59.320Z,29.00
2022-12-01T04:24:26.465Z,27.60
2022-12-01T04:26:53.579Z,26.20
2022-12-01T04:29:20.813Z,27.40
2022-12-01T04:31:48.107Z,24.60
2022-12-01T04:34:15.265Z,29.63
2022-12-01T04:36:42.428Z,25.03
2022-12-01T04:39:09.521Z,27.57
2022-12-01T04:41:36.672Z,24.47
2022-12-01T04:44:03.805Z,25.97
2022-12-01T04:46:31.206Z,24.27
2022-12-01T04:48:58.465Z,24.50
2022-12-01T04:51:25.536Z,24.80
2022-12-01T04:53:52.686Z,23.40
2022-12-01T04:56:19.926Z,25.07
2022-12-01T04:58:47.202Z,24.63
2022-12-01T05:01:16.759Z,21.97
2022-12-01T05:03:46.839Z,25.13
2022-12-01T05:06:16.699Z,23.63
2022-12-01T05:08:43.900Z,24.53
2022-12-01T05:11:12.410Z,24.13
2022-12-01T05:13:41.734Z,23.17
2022-12-01T05:16:12.153Z,22.90
2022-12-01T05:18:39.711Z,25.80
2022-12-01T05:21:09.426Z,23.77
2022-12-01T05:23:37.960Z,22.70
2022-12-01T05:26:07.397Z,25.93
2022-12-01T05:28:34.815Z,25.47
2022-12-01T05:31:02.456Z,22.93
2022-12-01T05:33:29.807Z,22.87
2022-12-01T05:35:57.218Z,22.27
2022-12-01T05:38:24.345Z,23.10
2022-12-01T05:40:53.713Z,20.53
2022-12-01T05:43:28.253Z,21.80
2022-12-01T05:45:56.693Z,21.10
2022-12-01T05:48:23.928Z,18.37
2022-12-01T05:50:51.076Z,23.30
2022-12-01T05:53:19.357Z,21.90
2022-12-01T05:55:46.657Z,21.40
2022-12-01T05:58:13.733Z,21.50
2022-12-01T06:00:45.621Z,20.47
2022-12-01T06:03:14.174Z,20.47
2022-12-01T06:05:41.354Z,17.53
2022-12-01T06:08:08.532Z,21.50
2022-12-01T06:10:35.699Z,19.37
2022-12-01T06:13:02.793Z,18.60
2022-12-01T06:15:29.905Z,19.13
2022-12-01T06:17:59.849Z,16.80
2022-12-01T06:20:27.364Z,20.67
2022-12-01T06:22:54.547Z,16.70
2022-12-01T06:25:21.671Z,17.50
2022-12-01T06:27:49.652Z,17.87
2022-12-01T06:30:16.926Z,16.97
2022-12-01T06:32:44.045Z,18.97
2022-12-01T06:35:11.178Z,18.50
2022-12-01T06:37:38.240Z,19.40
2022-12-01T06:40:05.989Z,17.77
2022-12-01T06:42:33.140Z,16.97
2022-12-01T06:45:00.460Z,16.47
2022-12-01T06:47:27.757Z,19.37
2022-12-01T06:49:54.835Z,17.40
2022-12-01T06:52:21.919Z,19.40
2022-12-01T06:54:49.166Z,17.07
2022-12-01T06:57:16.695Z,17.77
2022-12-01T06:59:44.144Z,18.10
2022-12-01T07:02:11.988Z,19.63
2022-12-01T07:04:39.293Z,17.87
2022-12-01T07:07:06.683Z,15.60
2022-12-01T07:09:34.309Z,16.23
2022-12-01T07:12:01.690Z,17.23
2022-12-01T07:14:29.015Z,18.23
2022-12-01T07:16:56.269Z,16.30
2022-12-01T07:19:23.545Z,16.07
2022-12-01T07:21:50.654Z,18.67
2022-12-01T07:24:17.791Z,17.37
2022-12-01T07:26:45.606Z,17.47
2022-12-01T07:29:12.830Z,17.43
2022-12-01T07:31:40.352Z,19.50
2022-12-01T07:34:07.549Z,17.27
2022-12-01T07:36:34.687Z,18.70
2022-12-01T07:39:07.741Z,18.63
2022-12-01T07:41:36.028Z,18.40
2022-12-01T07:44:03.714Z,19.47
2022-12-01T07:46:30.992Z,18.40
2022-12-01T07:48:59.499Z,17.67
2022-12-01T07:51:27.339Z,20.43
2022-12-01T07:53:55.313Z,17.97
2022-12-01T07:56:23.805Z,17.30
2022-12-01T07:58:51.478Z,17.63
2022-12-01T08:01:24.895Z,19.17
2022-12-01T08:03:54.094Z,35.27
2022-12-01T08:06:21.997Z,39.53
2022-12-01T08:08:49.869Z,42.60
2022-12-01T08:11:22.275Z,41.13
2022-12-01T08:13:50.329Z,41.23
2022-12-01T08:16:21.171Z,38.70
2022-12-01T08:18:48.989Z,35.30
2022-12-01T08:21:18.969Z,33.03
2022-12-01T08:23:46.721Z,33.57
2022-12-01T08:26:16.411Z,34.23
2022-12-01T08:28:44.567Z,31.43
2022-12-01T08:31:15.148Z,34.23
2022-12-01T08:33:42.364Z,30.03
2022-12-01T08:36:09.536Z,33.17
2022-12-01T08:38:36.723Z,31.10
2022-12-01T08:41:06.973Z,32.07
2022-12-01T08:43:56.424Z,32.70
2022-12-01T08:46:22.034Z,29.17
2022-12-01T08:48:49.238Z,30.00
2022-12-01T08:51:19.062Z,31.07
2022-12-01T08:53:49.042Z,29.17
2022-12-01T08:56:16.141Z,30.53
2022-12-01T08:58:43.412Z,29.33
2022-12-01T09:01:13.089Z,26.87
2022-12-01T09:03:41.232Z,27.03
2022-12-01T09:06:11.226Z,25.93
2022-12-01T09:08:38.636Z,28.00
2022-12-01T09:11:11.530Z,27.03
2022-12-01T09:13:39.832Z,29.10
2022-12-01T09:16:15.333Z,26.80
2022-12-01T09:18:43.802Z,24.43
2022-12-01T09:21:15.406Z,26.90
2022-12-01T09:23:42.873Z,24.30
2022-12-01T09:26:13.552Z,25.10
2022-12-01T09:28:41.227Z,24.97
2022-12-01T09:31:12.019Z,25.00
2022-12-01T09:33:40.073Z,24.43
2022-12-01T09:36:10.736Z,23.97
2022-12-01T09:38:39.499Z,24.83
2022-12-01T09:41:15.352Z,23.53
2022-12-01T09:43:52.803Z,23.80
2022-12-01T09:46:26.209Z,23.10
2022-12-01T09:48:57.379Z,24.43
2022-12-01T09:51:27.974Z,22.87
2022-12-01T09:53:57.626Z,23.90
2022-12-01T09:56:32.225Z,27.00
2022-12-01T09:59:02.423Z,24.03
2022-12-01T10:01:38.417Z,25.23
2022-12-01T10:04:23.487Z,24.87
2022-12-01T10:06:59.398Z,24.03
2022-12-01T10:10:04.260Z,22.10
2022-12-01T10:12:34.245Z,25.97
2022-12-01T10:15:13.217Z,24.37
2022-12-01T10:17:52.616Z,22.43
2022-12-01T10:20:34.328Z,22.83
2022-12-01T10:23:19.193Z,22.60
2022-12-01T10:26:14.655Z,21.70
2022-12-01T10:29:00.761Z,21.80
2022-12-01T10:31:59.041Z,24.13
2022-12-01T10:34:38.892Z,24.50
2022-12-01T10:37:06.719Z,22.97
2022-12-01T10:39:49.129Z,24.20
2022-12-01T10:42:37.536Z,22.10
2022-12-01T10:45:08.372Z,22.93
2022-12-01T10:47:35.440Z,22.10
2022-12-01T10:50:07.353Z,25.50
2022-12-01T10:52:39.029Z,21.87
2022-12-01T10:55:46.363Z,23.80
2022-12-01T10:58:16.948Z,22.20
2022-12-01T11:01:01.866Z,23.87
2022-12-01T11:03:34.968Z,23.73
2022-12-01T11:06:07.906Z,22.67
2022-12-01T11:08:46.853Z,26.20
2022-12-01T11:11:31.236Z,21.20
2022-12-01T11:14:02.423Z,23.63
2022-12-01T11:16:54.170Z,22.97
2022-12-01T11:19:26.862Z,20.37
2022-12-01T11:22:00.301Z,23.23
2022-12-01T11:24:29.290Z,23.97
2022-12-01T11:26:58.810Z,22.17
2022-12-01T11:29:29.480Z,23.87
2022-12-01T11:31:57.973Z,22.70
2022-12-01T11:34:34.489Z,22.37
2022-12-01T11:37:06.629Z,22.93
2022-12-01T11:39:40.797Z,21.27
2022-12-01T11:42:18.413Z,22.67
2022-12-01T11:45:10.736Z,25.20
2022-12-01T11:47:59.519Z,24.20
2022-12-01T11:50:29.501Z,24.97
2022-12-01T11:52:56.851Z,24.43
2022-12-01T11:55:26.850Z,21.73
2022-12-01T11:57:57.682Z,22.17
2022-12-01T12:00:28.101Z,24.30
2022-12-01T12:03:41.227Z,21.47
2022-12-01T12:06:38.988Z,23.50
2022-12-01T12:09:44.949Z,23.00
2022-12-01T12:12:15.112Z,24.23
2022-12-01T12:15:13.826Z,21.90
2022-12-01T12:18:02.450Z,21.27
2022-12-01T12:20:48.333Z,21.67
2022-12-01T12:23:24.788Z,23.00
2022-12-01T12:26:29.220Z,21.43
2022-12-01T12:29:22.204Z,21.80
2022-12-01T12:32:18.400Z,23.67
2022-12-01T12:35:07.800Z,22.73
2022-12-01T12:37:53.762Z,23.67
2022-12-01T12:40:38.225Z,24.53
2022-12-01T12:43:22.472Z,25.67
2022-12-01T12:46:27.060Z,28.97
2022-12-01T12:49:25.513Z,25.20
2022-12-01T12:52:08.076Z,22.73
2022-12-01T12:55:00.479Z,24.93
2022-12-01T12:58:07.928Z,23.53
2022-12-01T13:00:44.182Z,22.90
2022-12-01T13:03:17.896Z,24.27
2022-12-01T13:05:49.462Z,24.23
2022-12-01T13:08:24.315Z,21.83
2022-12-01T13:11:00.812Z,25.10
2022-12-01T13:13:46.379Z,24.37
2022-12-01T13:16:22.723Z,24.10
2022-12-01T13:19:05.056Z,20.97
2022-12-01T13:21:43.215Z,23.73
2022-12-01T13:24:17.304Z,23.37
2022-12-01T13:26:51.247Z,20.63
2022-12-01T13:29:21.871Z,21.30
2022-12-01T13:31:51.713Z,22.10
2022-12-01T13:34:27.015Z,22.87
2022-12-01T13:36:55.669Z,24.37
2022-12-01T13:39:28.893Z,22.30
2022-12-01T13:42:00.377Z,21.53
2022-12-01T13:44:53.920Z,22.73
2022-12-01T13:47:21.315Z,24.83
2022-12-01T13:49:52.133Z,23.37
2022-12-01T13:52:22.467Z,23.90
2022-12-01T13:55:07.573Z,22.90
2022-12-01T13:57:44.943Z,23.27
2022-12-01T14:00:32.931Z,25.13
2022-12-01T14:03:15.411Z,24.43
2022-12-01T14:05:42.494Z,25.33
2022-12-01T14:08:25.318Z,25.27
2022-12-01T14:11:21.340Z,25.23
2022-12-01T14:14:00.556Z,29.53
2022-12-01T14:16:48.098Z,24.60
2022-12-01T14:19:44.559Z,26.57
2022-12-01T14:22:44.356Z,28.37
2022-12-01T14:25:20.491Z,25.23
2022-12-01T14:27:51.512Z,28.63
2022-12-01T14:30:40.348Z,27.30
2022-12-01T14:33:47.851Z,29.40
2022-12-01T14:36:23.920Z,27.57
2022-12-01T14:39:16.188Z,26.57
2022-12-01T14:41:56.449Z,25.90
2022-12-01T14:44:33.971Z,25.97
2022-12-01T14:47:08.612Z,26.53
2022-12-01T14:49:55.310Z,28.27
2022-12-01T14:52:28.379Z,27.90
2022-12-01T14:54:58.991Z,27.57
2022-12-01T14:57:41.156Z,27.77
2022-12-01T15:00:13.501Z,27.87
2022-12-01T15:03:13.740Z,27.87
2022-12-01T15:05:43.540Z,27.87
2022-12-01T15:08:58.239Z,26.97
2022-12-01T15:11:23.264Z,26.97
2022-12-01T15:13:59.553Z,27.00
2022-12-01T15:16:30.649Z,26.70
2022-12-01T15:18:58.143Z,29.40
2022-12-01T15:21:32.700Z,27.00
2022-12-01T15:24:26.728Z,28.37
2022-12-01T15:27:02.173Z,29.50
2022-12-01T15:29:45.680Z,26.90
2022-12-01T15:32:16.934Z,27.97
2022-12-01T15:34:47.185Z,27.53
2022-12-01T15:37:17.574Z,28.47
2022-12-01T15:40:47.726Z,26.97
2022-12-01T15:43:23.368Z,28.47
2022-12-01T15:46:02.096Z,27.93
2022-12-01T15:48:35.278Z,30.50
2022-12-01T15:51:05.740Z,27.97
2022-12-01T15:53:35.729Z,26.00
2022-12-01T15:56:06.778Z,28.50
2022-12-01T15:58:41.393Z,29.00
2022-12-01T16:01:32.303Z,28.07
2022-12-01T16:04:06.354Z,29.20
2022-12-01T16:06:36.507Z,28.43
2022-12-01T16:09:06.850Z,28.90
2022-12-01T16:11:34.127Z,29.30
2022-12-01T16:14:02.677Z,31.33
2022-12-01T16:16:46.400Z,27.90
2022-12-01T16:19:16.331Z,29.33
2022-12-01T16:22:02.092Z,27.63
2022-12-01T16:24:36.899Z,28.27
2022-12-01T16:27:16.736Z,30.33
2022-12-01T16:29:57.238Z,26.67
2022-12-01T16:32:36.062Z,29.47
2022-12-01T16:35:04.433Z,30.33
2022-12-01T16:37:31.886Z,29.83
2022-12-01T16:39:59.074Z,29.90
2022-12-01T16:42:27.366Z,27.27
2022-12-01T16:44:54.567Z,27.10
2022-12-01T16:47:24.525Z,29.17
2022-12-01T16:49:52.592Z,31.27
2022-12-01T16:52:43.692Z,29.43
2022-12-01T16:55:19.157Z,34.73
2022-12-01T16:57:46.315Z,29.87
2022-12-01T17:00:14.289Z,33.33
2022-12-01T17:02:41.564Z,29.20
2022-12-01T17:05:11.360Z,30.70
2022-12-01T17:07:38.865Z,28.13
2022-12-01T17:10:06.743Z,30.10
2022-12-01T17:12:33.887Z,31.90
2022-12-01T17:15:01.203Z,31.70
2022-12-01T17:17:31.096Z,30.97
2022-12-01T17:19:58.301Z,29.30
2022-12-01T17:22:25.529Z,33.70
2022-12-01T17:24:54.827Z,30.90
2022-12-01T17:27:27.783Z,30.60
2022-12-01T17:29:55.958Z,31.50
2022-12-01T17:32:23.121Z,32.37
2022-12-01T17:34:50.450Z,29.57
2022-12-01T17:37:21.074Z,29.13
2022-12-01T17:39:49.691Z,31.07
2022-12-01T17:42:17.259Z,28.87
2022-12-01T17:44:44.397Z,31.17
2022-12-01T17:47:12.120Z,29.97
2022-12-01T17:49:39.263Z,32.50
2022-12-01T17:52:08.354Z,30.23
2022-12-01T17:54:35.534Z,30.90
2022-12-01T17:57:02.686Z,31.07
2022-12-01T17:59:29.744Z,30.40
2022-12-01T18:01:56.966Z,30.27
2022-12-01T18:04:24.151Z,31.57
2022-12-01T18:06:54.214Z,30.43
2022-12-01T18:09:22.129Z,30.33
2022-12-01T18:11:49.988Z,32.47
2022-12-01T18:14:20.257Z,32.90
2022-12-01T18:16:47.398Z,32.80
2022-12-01T18:19:14.632Z,32.70
2022-12-01T18:21:42.379Z,33.23
2022-12-01T18:24:10.459Z,30.97
2022-12-01T18:26:40.041Z,32.77
2022-12-01T18:29:12.746Z,32.80
2022-12-01T18:31:41.024Z,34.70
2022-12-01T18:34:10.086Z,31.90
2022-12-01T18:36:39.835Z,33.27
2022-12-01T18:39:09.188Z,30.20
2022-12-01T18:41:36.979Z,33.13
2022-12-01T18:44:04.769Z,32.50
2022-12-01T18:46:32.648Z,32.13
2022-12-01T18:49:03.174Z,32.23
2022-12-01T18:51:32.454Z,33.33
2022-12-01T18:54:01.519Z,33.17
2022-12-01T18:56:29.661Z,30.43
2022-12-01T18:58:58.506Z,30.17
2022-12-01T19:01:32.329Z,33.63
2022-12-01T19:04:01.225Z,30.60
2022-12-01T19:06:29.602Z,29.87
2022-12-01T19:09:00.145Z,30.13
2022-12-01T19:11:27.754Z,30.67
2022-12-01T19:13:56.530Z,32.17
2022-12-01T19:16:24.016Z,29.57
2022-12-01T19:18:51.335Z,32.57
2022-12-01T19:21:20.020Z,29.43
2022-12-01T19:23:48.336Z,28.03
2022-12-01T19:26:18.016Z,28.90
2022-12-01T19:28:45.877Z,30.53
2022-12-01T19:31:15.480Z,28.60
2022-12-01T19:33:42.980Z,28.80
2022-12-01T19:36:13.302Z,28.63
2022-12-01T19:38:40.841Z,30.03
2022-12-01T19:41:09.386Z,27.90
2022-12-01T19:43:37.592Z,28.00
2022-12-01T19:46:10.171Z,28.73
2022-12-01T19:48:41.150Z,28.63
2022-12-01T19:51:22.042Z,28.20
2022-12-01T19:53:50.556Z,27.63
2022-12-01T19:56:17.858Z,27.10
2022-12-01T19:58:45.118Z,27.60
2022-12-01T20:01:15.300Z,30.93
2022-12-01T20:03:45.692Z,27.80
2022-12-01T20:06:18.811Z,28.13
2022-12-01T20:08:46.337Z,28.53
2022-12-01T20:11:14.582Z,25.80
2022-12-01T20:13:43.920Z,27.53
2022-12-01T20:16:17.487Z,28.53
2022-12-01T20:18:45.362Z,26.87
2022-12-01T20:21:24.416Z,23.23
2022-12-01T20:23:57.781Z,29.53
2022-12-01T20:26:33.771Z,25.40
2022-12-01T20:29:04.764Z,25.07
2022-12-01T20:31:33.304Z,24.70
2022-12-01T20:34:03.965Z,22.50
2022-12-01T20:36:31.750Z,23.10
2022-12-01T20:38:58.956Z,25.77
2022-12-01T20:41:26.058Z,24.30
2022-12-01T20:43:53.253Z,24.57
2022-12-01T20:46:20.465Z,23.30
2022-12-01T20:48:47.669Z,24.37
2022-12-01T20:51:15.637Z,25.80
2022-12-01T20:53:59.639Z,23.87
2022-12-01T20:56:30.343Z,21.90
2022-12-01T20:58:58.418Z,21.77
2022-12-01T21:01:25.828Z,22.50
2022-12-01T21:03:53.611Z,22.00
2022-12-01T21:06:21.848Z,23.40
2022-12-01T21:08:50.290Z,21.27
2022-12-01T21:11:44.900Z,21.40
2022-12-01T21:14:17.833Z,21.77
2022-12-01T21:16:48.426Z,20.67
2022-12-01T21:19:24.541Z,18.30
2022-12-01T21:21:51.731Z,18.30
2022-12-01T21:24:22.269Z,16.10
2022-12-01T21:26:58.430Z,16.73
2022-12-01T21:29:28.552Z,13.60
2022-12-01T21:32:00.225Z,14.67
2022-12-01T21:34:29.063Z,14.07
2022-12-01T21:37:01.804Z,13.80
2022-12-01T21:39:30.530Z,13.03
2022-12-01T21:42:09.305Z,13.37
2022-12-01T21:44:37.589Z,12.00
2022-12-01T21:47:26.130Z,11.60
2022-12-01T21:49:56.240Z,11.77
2022-12-01T21:52:31.945Z,10.63
2022-12-01T21:55:09.133Z,11.83
2022-12-01T21:57:54.447Z,11.47
2022-12-01T22:00:26.883Z,13.30
2022-12-01T22:03:08.805Z,11.03
2022-12-01T22:05:41.709Z,11.80
2022-12-01T22:08:17.759Z,12.63
2022-12-01T22:11:12.957Z,11.90
2022-12-01T22:14:08.919Z,10.70
2022-12-01T22:16:40.592Z,12.53
2022-12-01T22:19:34.380Z,11.00
2022-12-01T22:22:14.396Z,11.90
2022-12-01T22:24:44.176Z,12.00
2022-12-01T22:27:31.906Z,11.93
2022-12-01T22:30:03.757Z,10.73
2022-12-01T22:32:53.278Z,11.40
2022-12-01T22:35:39.348Z,11.20
2022-12-01T22:38:06.418Z,10.03
2022-12-01T22:41:03.777Z,9.73
2022-12-01T22:43:38.709Z,10.00
2022-12-01T22:46:22.771Z,10.80
2022-12-01T22:49:03.257Z,9.60
2022-12-01T22:51:43.965Z,9.53
2022-12-01T22:54:22.531Z,10.00
2022-12-01T22:56:57.953Z,10.87
2022-12-01T22:59:34.123Z,10.90
2022-12-01T23:02:11.790Z,9.90
2022-12-01T23:04:42.451Z,10.50
2022-12-01T23:07:30.234Z,10.73
2022-12-01T23:10:17.368Z,10.23
2022-12-01T23:12:46.101Z,10.83
2022-12-01T23:15:25.779Z,10.20
2022-12-01T23:17:53.010Z,11.60
2022-12-01T23:20:28.918Z,9.00
2022-12-01T23:22:58.646Z,11.00
2022-12-01T23:25:27.566Z,9.83
2022-12-01T23:27:58.573Z,10.60
2022-12-01T23:30:26.288Z,12.13
2022-12-01T23:33:17.773Z,10.30
2022-12-01T23:35:57.607Z,9.47
2022-12-01T23:38:37.561Z,10.30
2022-12-01T23:41:16.747Z,10.00
2022-12-01T23:43:45.288Z,11.63
2022-12-01T23:46:24.422Z,11.50
2022-12-01T23:48:58.955Z,10.60
2022-12-01T23:51:37.049Z,8.97
2022-12-01T23:54:16.286Z,11.13
2022-12-01T23:56:47.400Z,9.77
2022-12-01T23:59:14.715Z,9.70
